Historyczne dane pomiarowe

Dodano dane terminowe – wersja testowa.

Dane z okresu 1951-2019

Wersja bazy: 1.34 [2019-03-16, lista zmian], aktualizacja planowana na 2019-04-15

Dane meteo z obszaru Polski uzyskane na podstawie danych udostępnionych przez Instytut Meteorologii i Gospodarki Wodnej – Państwowy Instytut Badawczy.

 

Wybierz Datę:    

       

TemperaturaWilgotnośćZachmurzenieWiatrCiśnienieWidzialnośćZjawiska
 Data    tng td wb rh cc ccl cl cm ch dir g1 g2 mslp ppp      
1999-08-09 00:00:00 20.0--- 15.2 17.074wxwxwx1wx--1002.8 993.0 0.0---wx
1999-08-09 01:00:00 19.9--- 15.8 17.377wxwxwx2wx--1003.1 993.3----wx
1999-08-09 02:00:00 18.4--- 17.5 17.894wxwxwx0wx--1002.8 993.0----wxw1
1999-08-09 03:00:00 17.3--- 16.5 16.895wxwxwx0wx--1003.3 993.4----wxw1
1999-08-09 04:00:00 16.8--- 16.2 16.496wxwxwxwxwx1wx--1003.8 993.9----wx
1999-08-09 05:00:00 18.0--- 17.1 17.494wxwxwxwx1wx--1004.3 994.5----wx
1999-08-09 06:00:00 19.2--- 17.5 18.190wxwxwxwx2wx--1004.5 994.7 2.0---wxw1
1999-08-09 07:00:00 20.6--- 17.5 18.683wxwxwx2wx--1005.1 995.3----wx
1999-08-09 08:00:00 22.0--- 17.7 19.277wxwxwx2wx--1005.2 995.5----wx
1999-08-09 09:00:00 23.5--- 17.7 19.770wxwxwx4wx--1005.7 996.0----wx
1999-08-09 10:00:00 23.6--- 17.2 19.467wxwxwx3wx--1005.7 996.0----wx
1999-08-09 11:00:00 26.0--- 15.4 19.252wxwxwx4wx--1006.1 996.5----wx
1999-08-09 12:00:00 25.4--- 16.5 19.658wxwxwx2wx--1005.9 996.3 0.0---wx
1999-08-09 13:00:00 25.6--- 14.2 18.449wxwxwxwx2wx--1005.6 996.0----wx
1999-08-09 14:00:00 26.6--- 13.1 18.243wxwxwxwx4wx--1005.6 996.0----wx
1999-08-09 15:00:00 26.0--- 13.5 18.246wxwxwxwx4wx--1005.9 996.3----wx
1999-08-09 16:00:00 23.8--- 13.9 17.654wxwxwxwx7wx13-1007.2 997.5----wx
1999-08-09 17:00:00 20.4--- 16.3 17.878wxwxwxwx1wx--1006.3 996.5----wxw1
1999-08-09 18:00:00 19.9--- 16.6 17.881wxwxwx2wx--1006.0 996.2 0.1---wxw1
1999-08-09 19:00:00 19.0--- 15.8 17.082wxwxwx2wx--1006.0 996.2----wx
1999-08-09 20:00:00 18.5--- 16.8 17.490wxwxwx2wx--1006.6 996.7----wx
1999-08-09 21:00:00 17.9--- 16.2 16.890wxwx1wx--1006.6 996.7----wx
1999-08-09 22:00:00 18.0--- 15.6 16.586wxwx1wx--1006.5 996.6----wx
1999-08-09 23:00:00 18.0--- 15.6 16.586wxwx0wx--1006.5 996.6----wx

 

Źródłem pochodzenia danych jest Instytut Meteorologii i Gospodarki Wodnej – Państwowy Instytut Badawczy. Dane Instytutu Meteorologii i Gospodarki Wodnej – Państwowego Instytutu Badawczego zostały przetworzone.

Dane źródłowe można odnaleźć na stronie https://dane.imgw.pl